Latest Weather Observations for Mount Gellibrand

IDV60801

Issued at 5:31 am EST Wednesday 5 August 2015 (issued every 30 minutes, with the page automatically refreshed every 10 minutes)

About weather observations | Map of weather stations | Latest weather observations for VIC | Other Formats
Station Details ID: 090035 Name: MOUNT GELLIBRAND Lat: -38.23 Lon: 143.79 Height: 261.0 m
Data from the previous 72 hours. | See also: Recent months at Mount Gellibrand
Date/Time
EST
Temp
°C
App
Temp
°C
Dew
Point
Rel
Hum
%
Delta-T
°C
Wind Press
QNH
hPa
Press
MSL
hPa
Rain
since 9 am
mm
Dir
 
Spd
km/h
Gust
km/h
Spd
kts
Gust
kts
05/05:30am 5.9 0.0 5.6 98 0.1 W 26 33 14 18 1010.3 1010.6 3.4
05/05:00am 6.1 0.2 5.7 97 0.2 W 26 33 14 18 1010.2 1010.5 3.4
05/04:30am 6.2 -0.5 5.8 97 0.2 W 30 37 16 20 1010.0 1010.3 3.4
05/04:00am 6.5 -1.0 6.1 97 0.2 WSW 35 56 19 30 1009.8 1010.1 3.2
05/03:59am 6.4 -0.8 6.0 97 0.2 W 33 56 18 30 1009.7 1010.0 3.2
05/03:30am 6.5 -0.5 6.1 97 0.2 W 32 41 17 22 1009.7 1010.0 2.2
05/03:00am 6.7 -3.6 6.3 97 0.2 W 50 61 27 33 1009.5 1009.8 1.2
05/02:30am 6.7 -2.9 6.1 96 0.3 WNW 46 56 25 30 1009.7 1010.0 0.6
05/02:00am 6.8 -2.8 6.2 96 0.3 WNW 46 57 25 31 1009.9 1010.2 0.4
05/01:30am 6.7 -3.3 6.1 96 0.3 WNW 48 57 26 31 1010.1 1010.4 0.4
05/01:00am 6.8 -3.2 6.2 96 0.3 WNW 48 57 26 31 1010.3 1010.6 0.4
05/12:30am 6.8 -2.8 6.2 96 0.3 WNW 46 61 25 33 1010.9 1011.2 0.4
05/12:00am 6.7 -3.7 6.1 96 0.3 WNW 50 65 27 35 1011.1 1011.4 0.4
 
Date/Time
EST
Temp
°C
App
Temp
°C
Dew
Point
Rel
Hum
%
Delta-T
°C
Wind Press
QNH
hPa
Press
MSL
hPa
Rain
since 9 am
mm
Dir
 
Spd
km/h
Gust
km/h
Spd
kts
Gust
kts
04/11:30pm 6.6 -3.4 6.0 96 0.3 WNW 48 57 26 31 1011.3 1011.6 0.4
04/11:00pm 6.4 -4.1 5.7 95 0.3 NW 50 57 27 31 1011.6 1011.9 0.4
04/10:30pm 6.8 -4.1 5.6 92 0.5 NW 52 61 28 33 1012.0 1012.3 0.4
04/10:00pm 6.8 -2.9 5.7 93 0.5 NW 46 56 25 30 1012.7 1013.0 0.4
04/09:30pm 6.9 -2.1 6.2 95 0.3 NW 43 50 23 27 1013.1 1013.4 0.4
04/09:00pm 6.7 -2.0 6.1 96 0.3 NW 41 48 22 26 1013.5 1013.8 0.2
04/08:30pm 6.4 -2.3 6.0 97 0.2 NW 41 50 22 27 1013.8 1014.1 0.2
04/08:00pm 6.6 -2.1 6.0 96 0.3 NW 41 48 22 26 1014.1 1014.4 0.2
04/07:30pm 6.8 -2.3 6.1 95 0.3 WNW 43 52 23 28 1014.4 1014.7 0.2
04/07:00pm 6.9 -2.4 5.7 92 0.5 WNW 44 56 24 30 1014.7 1015.0 0.2
04/06:30pm 7.6 -1.8 5.6 87 0.9 NW 44 54 24 29 1014.5 1014.8 0.0
04/06:00pm 7.7 -0.7 5.5 86 1.0 NW 39 50 21 27 1014.9 1015.2 0.0
04/05:30pm 7.8 -1.6 5.3 84 1.1 WNW 44 59 24 32 1015.2 1015.6 0.0
04/05:24pm 7.9 -1.0 5.0 82 1.3 NW 41 59 22 32 1014.9 1015.2 0.0
04/05:00pm 8.0 0.6 5.1 82 1.3 NW 33 39 18 21 1015.5 1015.9 0.0
04/04:30pm 8.1 -1.4 4.7 79 1.5 WNW 44 56 24 30 1015.7 1016.1 0.0
04/04:00pm 8.4 -0.5 5.0 79 1.5 NW 41 50 22 27 1016.2 1016.5 0.0
04/03:30pm 8.4 -1.2 4.6 77 1.7 NW 44 54 24 29 1016.5 1016.8 0.0
04/03:00pm 9.4 1.0 5.4 76 1.8 WNW 39 50 21 27 1016.9 1017.2 0.0
04/02:30pm 8.7 -0.2 5.1 78 1.6 WNW 41 50 22 27 1017.4 1017.7 0.0
04/02:00pm 8.5 -0.9 4.5 76 1.8 WNW 43 50 23 27 1017.8 1018.1 0.0
04/01:30pm 8.6 -0.4 4.6 76 1.8 WNW 41 50 22 27 1018.4 1018.8 0.0
04/01:00pm 7.8 -1.6 4.2 78 1.6 WNW 43 50 23 27 1019.0 1019.4 0.0
04/12:30pm 7.3 -1.4 4.1 80 1.4 WNW 39 48 21 26 1019.3 1019.7 0.0
04/12:00pm 7.3 -1.8 4.1 80 1.4 WNW 41 50 22 27 1020.2 1020.5 0.0
04/11:30am 7.4 -1.3 4.2 80 1.4 WNW 39 48 21 26 1020.6 1020.9 0.0
04/11:00am 6.6 -1.7 4.1 84 1.1 NW 37 44 20 24 1021.0 1021.3 0.0
04/10:30am 5.7 -2.0 3.5 86 0.9 WNW 33 39 18 21 1021.3 1021.6 0.0
04/10:00am 4.7 -3.5 2.6 86 0.9 WNW 35 43 19 23 1021.5 1021.9 0.0
04/09:30am 4.1 -3.8 2.5 89 0.7 NW 33 41 18 22 1021.5 1021.9 0.0
04/09:00am 3.5 -3.8 2.2 91 0.5 NW 30 39 16 21 1021.6 1022.0 0.0
04/08:30am 3.2 -4.1 2.2 93 0.4 WNW 30 35 16 19 1021.9 1022.3 0.0
04/08:00am 2.9 -3.7 2.2 95 0.3 NW 26 32 14 17 1021.9 1022.3 0.0
04/07:30am 2.8 -3.4 2.1 95 0.3 WNW 24 30 13 16 1022.0 1022.4 0.0
04/07:00am 2.7 -3.5 2.1 96 0.2 WNW 24 30 13 16 1022.1 1022.5 0.0
04/06:30am 2.5 -3.7 1.9 96 0.2 WNW 24 26 13 14 1022.0 1022.4 0.0
04/06:00am 2.5 -2.8 1.9 96 0.2 NW 19 24 10 13 1021.9 1022.3 0.0
04/05:30am 2.6 -3.3 2.0 96 0.2 WNW 22 28 12 15 1021.9 1022.3 0.0
04/05:00am 2.4 -3.5 1.8 96 0.2 W 22 26 12 14 1021.9 1022.3 0.0
04/04:30am 2.4 -3.1 1.8 96 0.2 WNW 20 22 11 12 1021.9 1022.3 0.0
04/04:00am 2.2 -2.8 1.6 96 0.2 WNW 17 22 9 12 1021.9 1022.3 0.0
04/03:30am 2.2 -3.2 1.5 95 0.3 WNW 19 22 10 12 1022.0 1022.4 0.0
04/03:00am 2.2 -3.2 1.5 95 0.3 WNW 19 24 10 13 1022.2 1022.6 0.0
04/02:30am 2.2 -3.2 1.5 95 0.3 WNW 19 22 10 12 1022.4 1022.8 0.0
04/02:00am 2.2 -3.2 1.3 94 0.3 WNW 19 22 10 12 1022.5 1022.9 0.0
04/01:30am 2.1 -3.3 1.2 94 0.3 WNW 19 20 10 11 1022.6 1023.0 0.0
04/01:00am 2.4 -3.0 1.4 93 0.4 W 19 20 10 11 1022.8 1023.2 0.0
04/12:30am 2.5 -1.7 1.5 93 0.4 WNW 13 17 7 9 1022.8 1023.2 0.0
04/12:00am 2.6 -1.6 1.4 92 0.5 WNW 13 15 7 8 1022.8 1023.2 0.0
 
Date/Time
EST
Temp
°C
App
Temp
°C
Dew
Point
Rel
Hum
%
Delta-T
°C
Wind Press
QNH
hPa
Press
MSL
hPa
Rain
since 9 am
mm
Dir
 
Spd
km/h
Gust
km/h
Spd
kts
Gust
kts
03/11:30pm 2.5 -2.5 1.3 92 0.5 WNW 17 20 9 11 1022.8 1023.2 0.0
03/11:00pm 2.8 -2.2 1.5 91 0.5 WNW 17 19 9 10 1022.8 1023.2 0.0
03/10:30pm 2.8 -1.5 1.2 89 0.6 WNW 13 15 7 8 1023.1 1023.5 0.0
03/10:00pm 3.4 -0.8 1.8 89 0.6 WNW 13 15 7 8 1023.2 1023.6 0.0
03/09:30pm 2.9 -2.5 1.4 90 0.6 WNW 19 20 10 11 1023.1 1023.5 0.0
03/09:00pm 2.8 -1.5 1.2 89 0.6 W 13 13 7 7 1023.1 1023.5 0.0
03/08:30pm 3.4 -0.8 1.9 90 0.6 SSW 13 15 7 8 1023.0 1023.4 0.0
03/08:00pm 3.4 -1.9 1.6 88 0.7 WSW 19 20 10 11 1023.0 1023.4 0.0
03/07:30pm 2.8 -2.3 0.9 87 0.7 W 17 20 9 11 1022.8 1023.2 0.0
03/07:00pm 3.6 -1.4 1.2 84 0.9 SW 17 20 9 11 1022.4 1022.8 0.0
03/06:30pm 4.1 -2.4 0.6 78 1.4 WSW 24 26 13 14 1022.1 1022.5 0.0
03/06:00pm 4.1 -1.9 1.3 82 1.1 W 22 32 12 17 1021.7 1022.1 0.0
03/05:30pm 4.4 -0.6 1.4 81 1.2 WSW 17 20 9 11 1021.3 1021.6 0.0
03/05:00pm 5.0 0.6 2.5 84 1.0 WSW 15 20 8 11 1021.1 1021.4 0.0
03/04:30pm 4.9 0.5 2.9 87 0.8 SW 15 20 8 11 1020.9 1021.2 0.0
03/04:00pm 5.0 -2.8 1.8 80 1.3 SSW 32 54 17 29 1020.4 1020.7 0.0
03/03:30pm 7.2 0.0 0.6 63 2.7 WSW 28 39 15 21 1020.1 1020.4 0.0
03/03:00pm 5.7 -1.8 0.9 71 1.9 SW 30 41 16 22 1019.7 1020.1 0.0
03/02:36pm 6.0 -1.9 1.0 70 2.0 SSW 32 50 17 27 1019.4 1019.8 0.0
03/02:30pm 6.3 -2.9 1.0 69 2.1 SW 39 54 21 29 1019.1 1019.5 0.0
03/02:00pm 7.0 -1.2 0.5 63 2.6 SW 33 43 18 23 1019.0 1019.4 0.0
03/01:30pm 6.9 -0.5 1.6 69 2.2 SW 30 46 16 25 1019.0 1019.4 0.0
03/01:26pm 6.7 -0.5 0.8 66 2.4 SW 28 46 15 25 1018.8 1019.2 0.0
03/01:00pm 6.3 -2.2 1.0 69 2.1 SW 35 50 19 27 1018.8 1019.2 0.0
03/12:30pm 7.3 -3.8 -0.2 59 3.0 WSW 48 61 26 33 1018.3 1018.7 0.0
03/12:00pm 7.1 -2.7 -0.4 59 2.9 WSW 41 50 22 27 1018.4 1018.8 0.0
03/11:30am 6.3 -2.6 1.0 69 2.1 WSW 37 48 20 26 1018.4 1018.8 0.0
03/11:00am 6.0 -2.7 2.3 77 1.5 WSW 37 48 20 26 1018.2 1018.5 0.0
03/10:30am 4.9 -4.2 1.9 81 1.2 WSW 39 46 21 25 1017.7 1018.0 0.0
03/10:08am 5.8 -3.9 0.4 68 2.1 WSW 41 61 22 33 1017.2 1017.5 0.0
03/10:00am 6.6 -1.8 1.5 70 2.1 WSW 35 43 19 23 1017.2 1017.5 0.0
03/09:30am 5.4 -3.5 0.8 72 1.8 SW 37 52 20 28 1016.8 1017.1 0.0
03/09:14am 4.9 -3.0 1.2 77 1.5 SW 32 52 17 28 1016.6 1016.9 0.0
03/09:00am 4.5 -3.0 1.4 80 1.2 WSW 30 37 16 20 1016.5 1016.8 4.0
03/08:30am 4.3 -6.0 0.6 77 1.4 SW 44 63 24 34 1015.3 1015.7 4.0
03/08:26am 4.5 -4.7 1.2 79 1.3 WSW 39 61 21 33 1015.2 1015.6 4.0
03/08:00am 4.0 -3.9 2.2 88 0.7 WSW 33 44 18 24 1014.8 1015.1 4.0
03/07:30am 4.2 -4.5 2.1 86 0.8 WSW 37 46 20 25 1014.0 1014.3 4.0
03/07:06am 4.3 -7.1 2.7 89 0.7 WSW 52 72 28 39 1013.4 1013.7 4.0
03/07:00am 4.5 -6.2 2.5 87 0.8 WSW 48 72 26 39 1012.9 1013.2 4.0
03/06:57am 4.6 -4.4 2.6 87 0.8 WSW 39 72 21 39 1012.8 1013.1 4.0
03/06:54am 4.8 -2.8 2.7 86 0.9 WSW 32 52 17 28 1013.0 1013.3 4.0
03/06:30am 5.0 -3.5 3.3 89 0.7 WSW 37 46 20 25 1012.6 1012.9 3.8
03/06:00am 4.7 -3.4 3.5 92 0.5 WSW 35 48 19 26 1011.7 1012.0 3.8
03/05:37am 4.7 -4.5 3.7 93 0.4 WSW 41 61 22 33 1011.2 1011.5 3.8
03/05:30am 4.8 -4.7 3.9 94 0.4 WSW 43 61 23 33 1011.0 1011.3 3.8
03/05:13am 5.0 -4.0 4.3 95 0.3 WSW 41 61 22 33 1011.1 1011.4 3.6
03/05:00am 4.9 -2.7 4.0 94 0.4 WSW 33 50 18 27 1011.2 1011.5 3.4
03/04:30am 4.8 -5.7 3.6 92 0.5 WSW 48 70 26 38 1010.4 1010.7 3.0
03/04:28am 4.8 -6.5 3.6 92 0.5 WSW 52 72 28 39 1010.3 1010.6 3.0
03/04:15am 5.4 -5.8 4.2 92 0.5 W 52 76 28 41 1009.8 1010.1 2.8
03/04:00am 5.4 -5.0 4.2 92 0.5 W 48 57 26 31 1009.5 1009.8 2.6
03/03:30am 5.5 -6.4 4.5 93 0.4 W 56 72 30 39 1009.5 1009.8 2.6
03/03:22am 5.7 -5.3 4.8 94 0.4 W 52 72 28 39 1009.5 1009.8 2.6
03/03:00am 5.8 -5.7 4.6 92 0.5 WNW 54 65 29 35 1009.0 1009.3 2.2
03/02:32am 5.9 -6.8 5.2 95 0.3 W 61 82 33 44 1009.0 1009.3 2.2
03/02:30am 5.9 -7.2 5.2 95 0.3 W 63 82 34 44 1009.4 1009.7 2.2
03/02:25am 6.0 -6.3 5.3 95 0.3 WNW 59 80 32 43 1009.1 1009.4 2.2
03/02:00am 6.0 -5.9 5.1 94 0.4 WNW 57 70 31 38 1008.9 1009.2 1.8
03/01:30am 6.0 -6.3 5.0 93 0.4 WNW 59 69 32 37 1008.7 1009.0 1.8
03/01:00am 6.1 -6.7 4.7 91 0.6 WNW 61 76 33 41 1008.5 1008.7 1.6
03/12:30am 6.1 -7.5 4.4 89 0.7 WNW 65 80 35 43 1008.4 1008.6 1.6
03/12:00am 6.2 -6.6 4.7 90 0.7 WNW 61 72 33 39 1008.5 1008.7 1.6
 
Date/Time
EST
Temp
°C
App
Temp
°C
Dew
Point
Rel
Hum
%
Delta-T
°C
Wind Press
QNH
hPa
Press
MSL
hPa
Rain
since 9 am
mm
Dir
 
Spd
km/h
Gust
km/h
Spd
kts
Gust
kts
02/11:30pm 6.1 -7.9 4.4 89 0.7 WNW 67 82 36 44 1008.3 1008.5 1.6
02/11:00pm 6.0 -7.2 4.5 90 0.7 WNW 63 78 34 42 1008.4 1008.6 1.6
02/10:30pm 6.0 -6.4 4.5 90 0.7 WNW 59 72 32 39 1008.8 1009.1 1.6
02/10:00pm 5.9 -6.0 4.5 91 0.6 WNW 56 69 30 37 1008.9 1009.2 1.6
02/09:30pm 6.3 -5.7 4.9 91 0.6 WNW 57 69 31 37 1009.1 1009.4 1.6
02/09:00pm 6.2 -4.5 4.8 91 0.6 WNW 50 61 27 33 1009.5 1009.8 1.6
02/08:30pm 6.2 -4.8 4.8 91 0.6 WNW 52 61 28 33 1009.3 1009.6 1.6
02/08:00pm 6.5 -4.1 5.0 90 0.7 WNW 50 61 27 33 1009.3 1009.6 1.6
02/07:30pm 6.7 -3.5 5.0 89 0.8 WNW 48 57 26 31 1009.4 1009.7 1.6
02/07:00pm 6.5 -3.4 4.8 89 0.8 WNW 46 56 25 30 1009.2 1009.5 1.6
02/06:30pm 7.1 -3.7 6.0 93 0.5 WNW 52 70 28 38 1009.1 1009.4 1.6
02/06:16pm 7.4 -2.1 6.5 94 0.4 W 46 67 25 36 1009.0 1009.3 1.6
02/06:00pm 7.3 -0.1 6.6 95 0.3 W 35 43 19 23 1009.2 1009.5 1.6
02/05:30pm 7.4 -1.6 6.5 94 0.4 W 43 50 23 27 1008.8 1009.1 1.6
02/05:00pm 7.5 -1.5 6.3 92 0.6 WNW 43 50 23 27 1008.4 1008.6 1.6
02/04:30pm 7.4 -3.0 6.2 92 0.6 W 50 61 27 33 1008.3 1008.5 1.6
02/04:00pm 7.5 -3.2 6.6 94 0.4 W 52 72 28 39 1008.0 1008.2 1.6
02/03:31pm 8.0 -2.5 7.2 95 0.4 W 52 76 28 41 1008.1 1008.3 1.4
02/03:30pm 7.9 -2.3 7.1 95 0.4 W 50 65 27 35 1008.1 1008.3 1.4
02/03:00pm 7.7 -3.4 6.2 90 0.7 W 54 70 29 38 1007.6 1007.9 0.8
02/02:39pm 10.0 -1.9 6.9 81 1.5 WNW 59 80 32 43 1007.1 1007.4 0.0
02/02:30pm 9.8 -3.8 6.2 78 1.7 WNW 67 80 36 43 1006.8 1007.1 0.0
02/02:08pm 9.7 -4.0 5.5 75 1.9 WNW 67 85 36 46 1006.4 1006.7 0.0
02/02:00pm 9.7 -3.7 5.5 75 1.9 WNW 65 82 35 44 1006.8 1007.1 0.0
02/01:30pm 10.0 -4.1 5.6 74 2.0 WNW 69 85 37 46 1007.2 1007.5 0.0
02/01:10pm 10.5 -3.6 5.7 72 2.2 WNW 69 83 37 45 1007.3 1007.6 0.0
02/01:00pm 10.1 -4.3 5.1 71 2.3 WNW 70 89 38 48 1006.9 1007.2 0.0
02/12:49pm 10.6 -3.6 5.2 69 2.5 WNW 69 91 37 49 1007.1 1007.4 0.0
02/12:30pm 10.0 -4.8 4.8 70 2.4 WNW 72 89 39 48 1007.7 1008.0 0.0
02/12:00pm 10.0 -3.5 4.8 70 2.4 WNW 65 87 35 47 1008.4 1008.6 0.0
02/11:38am 9.6 -3.5 4.8 72 2.2 WNW 63 82 34 44 1008.4 1008.6 0.0
02/11:30am 9.4 -4.1 5.0 74 2.0 WNW 65 80 35 43 1008.9 1009.2 0.0
02/11:11am 8.8 -3.1 5.2 78 1.6 NW 57 76 31 41 1009.4 1009.7 0.0
02/11:00am 9.0 -3.7 5.0 76 1.8 NW 61 76 33 41 1009.2 1009.5 0.0
02/10:30am 8.3 -4.1 4.5 77 1.7 NW 59 70 32 38 1009.3 1009.6 0.0
02/10:00am 7.6 -3.2 4.2 79 1.5 NW 50 67 27 36 1009.7 1010.0 0.0
02/09:30am 6.7 -3.4 3.7 81 1.3 NW 46 56 25 30 1010.2 1010.5 0.0
02/09:00am 5.7 -4.5 3.0 83 1.1 NW 46 54 25 29 1010.3 1010.6 0.2
02/08:30am 4.5 -4.8 2.8 89 0.7 NW 41 48 22 26 1010.6 1010.9 0.2
02/08:00am 3.2 -5.1 2.0 92 0.5 NW 35 39 19 21 1010.8 1011.1 0.2
02/07:30am 2.8 -5.3 1.3 90 0.6 NW 33 37 18 20 1010.8 1011.1 0.2
02/07:00am 3.2 -4.8 1.4 88 0.7 NW 33 37 18 20 1011.0 1011.3 0.2
02/06:30am 3.6 -4.4 1.6 87 0.8 NW 33 39 18 21 1011.2 1011.5 0.2
02/06:00am 3.9 -4.1 1.6 85 0.9 NW 33 39 18 21 1011.1 1011.4 0.2

Other Formats:

Comma delimited format used in spreadsheet applications
http://www.bom.gov.au/fwo/IDV60801/IDV60801.95845.axf

JavaScript Object Notation format (JSON) in row-major order
http://www.bom.gov.au/fwo/IDV60801/IDV60801.95845.json